createdAt,value
2023-05-04T00:00:02.582Z,10.2
2023-05-04T00:02:02.924Z,10.7
2023-05-04T00:04:03.361Z,8.7
2023-05-04T00:06:02.261Z,9.1
2023-05-04T00:08:02.455Z,9.1
2023-05-04T00:10:02.480Z,9.4
2023-05-04T00:12:02.928Z,11.6
2023-05-04T00:14:02.524Z,10.8
2023-05-04T00:16:02.577Z,12.2
2023-05-04T00:18:02.558Z,9.7
2023-05-04T00:20:03.572Z,9.3
2023-05-04T00:22:03.458Z,8.8
2023-05-04T00:24:02.984Z,8.7
2023-05-04T00:26:02.603Z,11.6
2023-05-04T00:28:02.488Z,10.9
2023-05-04T00:30:03.671Z,8.2
2023-05-04T00:32:02.375Z,8.3
2023-05-04T00:34:02.370Z,10.0
2023-05-04T00:36:04.423Z,9.5
2023-05-04T00:38:03.976Z,10.4
2023-05-04T00:40:02.915Z,9.6
2023-05-04T00:42:03.170Z,10.8
2023-05-04T00:44:04.011Z,12.5
2023-05-04T00:46:02.412Z,9.6
2023-05-04T00:48:02.812Z,8.2
2023-05-04T00:50:04.502Z,13.2
2023-05-04T00:52:04.501Z,9.8
2023-05-04T00:54:03.172Z,10.6
2023-05-04T00:56:03.628Z,11.9
2023-05-04T00:58:03.483Z,11.6
2023-05-04T01:00:03.332Z,11.7
2023-05-04T01:02:02.315Z,9.5
2023-05-04T01:04:03.270Z,10.2
2023-05-04T01:06:12.456Z,10.9
2023-05-04T01:08:07.637Z,10.0
2023-05-04T01:10:09.480Z,9.7
2023-05-04T01:12:06.451Z,7.8
2023-05-04T01:14:03.811Z,12.5
2023-05-04T01:16:02.864Z,9.0
2023-05-04T01:18:03.643Z,12.5
2023-05-04T01:20:03.668Z,11.0
2023-05-04T01:22:02.934Z,10.2
2023-05-04T01:24:02.556Z,8.3
2023-05-04T01:26:10.304Z,9.8
2023-05-04T01:28:08.424Z,11.2
2023-05-04T01:30:08.233Z,11.2
2023-05-04T01:32:03.201Z,10.6
2023-05-04T01:34:03.389Z,9.2
2023-05-04T01:36:02.636Z,10.6
2023-05-04T01:38:03.036Z,9.8
2023-05-04T01:40:02.772Z,9.1
2023-05-04T01:42:02.705Z,9.9
2023-05-04T01:44:03.234Z,11.8
2023-05-04T01:46:02.906Z,8.7
2023-05-04T01:48:02.499Z,11.9
2023-05-04T01:50:05.363Z,9.8
2023-05-04T01:52:03.305Z,9.6
2023-05-04T01:54:02.633Z,9.6
2023-05-04T01:56:02.628Z,9.5
2023-05-04T01:58:03.158Z,11.3
2023-05-04T02:00:03.679Z,8.2
2023-05-04T02:02:03.123Z,7.8
2023-05-04T02:04:03.000Z,9.4
2023-05-04T02:06:03.035Z,8.7
2023-05-04T02:08:02.365Z,10.3
2023-05-04T02:10:03.968Z,9.9
2023-05-04T02:12:03.300Z,10.5
2023-05-04T02:14:02.345Z,10.7
2023-05-04T02:16:03.215Z,10.1
2023-05-04T02:18:02.351Z,9.2
2023-05-04T02:20:03.970Z,12.8
2023-05-04T02:22:02.320Z,11.2
2023-05-04T02:24:05.696Z,9.5
2023-05-04T02:26:02.279Z,10.9
2023-05-04T02:28:02.575Z,15.0
2023-05-04T02:30:04.144Z,10.7
2023-05-04T02:32:02.435Z,12.8
2023-05-04T02:34:02.288Z,11.3
2023-05-04T02:36:02.536Z,13.8
2023-05-04T02:38:02.357Z,11.3
2023-05-04T02:40:03.849Z,11.3
2023-05-04T02:42:02.716Z,9.8
2023-05-04T02:44:02.259Z,10.1
2023-05-04T02:46:02.505Z,10.7
2023-05-04T02:48:02.582Z,11.6
2023-05-04T02:50:02.470Z,11.6
2023-05-04T02:52:03.255Z,12.1
2023-05-04T02:54:02.508Z,12.4
2023-05-04T02:56:02.306Z,10.8
2023-05-04T02:58:02.350Z,11.0
2023-05-04T03:00:04.202Z,10.9
2023-05-04T03:02:02.296Z,8.5
2023-05-04T03:04:02.944Z,10.1
2023-05-04T03:06:03.103Z,10.4
2023-05-04T03:08:02.329Z,10.5
2023-05-04T03:10:02.343Z,13.0
2023-05-04T03:12:03.785Z,12.8
2023-05-04T03:14:02.789Z,9.9
2023-05-04T03:16:05.002Z,16.7
2023-05-04T03:18:03.062Z,11.9
2023-05-04T03:20:03.527Z,12.3
2023-05-04T03:22:02.918Z,14.3
2023-05-04T03:24:04.605Z,12.7
2023-05-04T03:26:02.916Z,9.6
2023-05-04T03:28:02.529Z,11.0
2023-05-04T03:30:03.035Z,12.1
2023-05-04T03:32:02.822Z,13.6
2023-05-04T03:34:03.020Z,15.1
2023-05-04T03:36:02.515Z,10.7
2023-05-04T03:38:02.995Z,11.0
2023-05-04T03:40:03.058Z,14.7
2023-05-04T03:42:03.350Z,14.2
2023-05-04T03:44:02.392Z,9.6
2023-05-04T03:46:02.601Z,12.0
2023-05-04T03:48:03.288Z,11.7
2023-05-04T03:50:02.639Z,15.3
2023-05-04T03:52:02.537Z,18.0
2023-05-04T03:54:02.779Z,14.3
2023-05-04T03:56:03.727Z,17.8
2023-05-04T03:58:02.423Z,14.9
2023-05-04T04:00:03.380Z,11.2
2023-05-04T04:02:02.404Z,10.7
2023-05-04T04:04:03.909Z,12.2
2023-05-04T04:06:03.178Z,9.8
2023-05-04T04:08:02.562Z,13.1
2023-05-04T04:10:02.637Z,16.1
2023-05-04T04:12:02.584Z,9.8
2023-05-04T04:14:02.286Z,9.8
2023-05-04T04:16:02.599Z,10.7
2023-05-04T04:18:02.977Z,12.3
2023-05-04T04:20:02.614Z,13.4
2023-05-04T04:22:02.401Z,11.7
2023-05-04T04:24:02.681Z,10.0
2023-05-04T04:26:05.554Z,10.6
2023-05-04T04:28:02.881Z,11.0
2023-05-04T04:30:03.754Z,11.9
2023-05-04T04:32:03.765Z,14.9
2023-05-04T04:34:03.105Z,11.7
2023-05-04T04:36:02.845Z,11.0
2023-05-04T04:38:03.891Z,11.0
2023-05-04T04:40:03.726Z,11.6
2023-05-04T04:42:03.294Z,12.4
2023-05-04T04:44:02.469Z,10.8
2023-05-04T04:46:03.702Z,16.0
2023-05-04T04:48:03.580Z,12.7
2023-05-04T04:50:05.575Z,11.4
2023-05-04T04:52:03.731Z,11.6
2023-05-04T04:54:02.476Z,15.2
2023-05-04T04:56:02.324Z,13.3
2023-05-04T04:58:02.540Z,12.8
2023-05-04T05:00:06.773Z,13.7
2023-05-04T05:02:02.367Z,12.4
2023-05-04T05:04:02.864Z,13.0
2023-05-04T05:06:03.448Z,14.6
2023-05-04T05:08:02.336Z,12.6
2023-05-04T05:10:03.345Z,12.3
2023-05-04T05:12:02.360Z,11.7
2023-05-04T05:14:02.300Z,13.1
2023-05-04T05:16:03.215Z,12.8
2023-05-04T05:18:02.570Z,11.9
2023-05-04T05:20:02.646Z,11.8
2023-05-04T05:22:02.507Z,10.5
2023-05-04T05:24:02.884Z,13.0
2023-05-04T05:26:03.563Z,13.7
2023-05-04T05:28:02.724Z,11.4
2023-05-04T05:30:04.918Z,11.3
2023-05-04T05:32:03.075Z,10.6
2023-05-04T05:34:02.538Z,10.0
2023-05-04T05:36:02.843Z,12.2
2023-05-04T05:38:02.339Z,11.6
2023-05-04T05:40:07.374Z,10.7
2023-05-04T05:42:03.561Z,12.1
2023-05-04T05:44:03.048Z,11.0
2023-05-04T05:46:02.596Z,10.9
2023-05-04T05:48:02.371Z,13.2
2023-05-04T05:50:02.455Z,12.0
2023-05-04T05:52:03.458Z,12.8
2023-05-04T05:54:02.404Z,12.9
2023-05-04T05:56:03.086Z,12.7
2023-05-04T05:58:02.379Z,12.2
2023-05-04T06:00:02.520Z,9.8
2023-05-04T06:02:02.317Z,11.5
2023-05-04T06:04:02.903Z,9.6
2023-05-04T06:06:02.433Z,9.0
2023-05-04T06:08:02.560Z,8.8
2023-05-04T06:10:04.047Z,11.5
2023-05-04T06:12:04.433Z,8.7
2023-05-04T06:14:03.022Z,9.0
2023-05-04T06:16:02.607Z,10.1
2023-05-04T06:18:03.283Z,7.1
2023-05-04T06:20:02.555Z,7.1
2023-05-04T06:22:02.566Z,9.5
2023-05-04T06:24:02.296Z,8.7
2023-05-04T06:26:05.300Z,7.3
2023-05-04T06:28:03.337Z,6.7
2023-05-04T06:30:03.977Z,6.6
2023-05-04T06:32:02.370Z,7.3
2023-05-04T06:34:02.312Z,9.7
2023-05-04T06:36:02.302Z,6.9
2023-05-04T06:38:03.156Z,9.3
2023-05-04T06:40:04.682Z,7.5
2023-05-04T06:42:02.838Z,8.1
2023-05-04T06:44:02.542Z,5.7
2023-05-04T06:46:02.995Z,8.3
2023-05-04T06:48:02.701Z,7.9
2023-05-04T06:50:06.566Z,7.6
2023-05-04T06:52:02.507Z,8.0
2023-05-04T06:54:02.525Z,6.5
2023-05-04T06:56:03.024Z,8.1
2023-05-04T06:58:02.391Z,6.5
2023-05-04T07:00:04.015Z,6.2
2023-05-04T07:02:02.384Z,6.7
2023-05-04T07:04:02.816Z,7.1
2023-05-04T07:06:03.147Z,5.5
2023-05-04T07:08:02.725Z,7.9
2023-05-04T07:10:03.853Z,4.3
2023-05-04T07:12:03.072Z,9.5
2023-05-04T07:14:02.485Z,5.8
2023-05-04T07:16:03.362Z,5.2
2023-05-04T07:18:02.869Z,5.5
2023-05-04T07:20:04.226Z,6.8
2023-05-04T07:22:02.313Z,7.6
2023-05-04T07:24:03.801Z,6.9
2023-05-04T07:26:03.747Z,6.7
2023-05-04T07:28:02.780Z,5.9
2023-05-04T07:30:05.912Z,5.0
2023-05-04T07:32:02.427Z,6.1
2023-05-04T07:34:02.349Z,6.0
2023-05-04T07:36:02.923Z,6.4
2023-05-04T07:38:03.493Z,5.6
2023-05-04T07:40:05.373Z,6.6
2023-05-04T07:42:03.465Z,7.5
2023-05-04T07:44:04.938Z,5.9
2023-05-04T07:46:02.938Z,6.6
2023-05-04T07:48:02.527Z,6.1
2023-05-04T07:50:02.978Z,6.5
2023-05-04T07:52:04.267Z,7.6
2023-05-04T07:54:02.798Z,6.4
2023-05-04T07:56:09.154Z,4.7
2023-05-04T07:58:02.455Z,5.9
2023-05-04T08:00:04.400Z,6.6
2023-05-04T08:02:03.620Z,5.8
2023-05-04T08:04:03.211Z,6.5
2023-05-04T08:06:02.673Z,5.1
2023-05-04T08:08:02.893Z,7.1
2023-05-04T08:10:02.682Z,6.7
2023-05-04T08:12:03.945Z,6.2
2023-05-04T08:14:02.360Z,7.6
2023-05-04T08:16:02.491Z,7.7
2023-05-04T08:18:02.912Z,8.6
2023-05-04T08:20:02.400Z,5.4
2023-05-04T08:22:03.432Z,8.2
2023-05-04T08:24:02.305Z,6.2
2023-05-04T08:26:03.333Z,5.3
2023-05-04T08:28:02.994Z,5.9
2023-05-04T08:30:02.689Z,8.5
2023-05-04T08:32:02.286Z,9.6
2023-05-04T08:34:03.236Z,8.1
2023-05-04T08:36:04.063Z,7.4
2023-05-04T08:38:03.242Z,6.4
2023-05-04T08:40:04.204Z,7.6
2023-05-04T08:42:03.040Z,6.0
2023-05-04T08:44:07.397Z,5.7
2023-05-04T08:46:04.262Z,8.2
2023-05-04T08:48:03.310Z,5.3
2023-05-04T08:50:02.859Z,7.0
2023-05-04T08:52:08.481Z,6.0
2023-05-04T08:54:06.463Z,5.7
2023-05-04T08:56:08.623Z,5.8
2023-05-04T08:58:05.943Z,6.2
2023-05-04T09:00:04.911Z,7.4
2023-05-04T09:02:03.412Z,7.4
2023-05-04T09:04:04.304Z,6.3
2023-05-04T09:06:03.461Z,5.4
2023-05-04T09:08:03.406Z,9.9
2023-05-04T09:10:02.928Z,6.0
2023-05-04T09:12:02.405Z,7.1
2023-05-04T09:14:02.596Z,6.8
2023-05-04T09:16:03.738Z,5.3
2023-05-04T09:18:04.849Z,5.2
2023-05-04T09:20:04.306Z,6.7
2023-05-04T09:22:12.601Z,6.2
2023-05-04T09:24:02.670Z,5.5
2023-05-04T09:26:02.279Z,7.6
2023-05-04T09:28:02.528Z,8.7
2023-05-04T09:30:02.736Z,7.1
2023-05-04T09:32:05.349Z,6.3
2023-05-04T09:34:08.991Z,10.8
2023-05-04T09:36:14.410Z,5.3
2023-05-04T09:38:03.356Z,7.6
2023-05-04T09:40:02.866Z,6.4
2023-05-04T09:42:04.415Z,5.9
2023-05-04T09:44:04.022Z,7.6
2023-05-04T09:46:02.664Z,6.0
2023-05-04T09:48:02.337Z,6.5
2023-05-04T09:50:15.523Z,8.9
2023-05-04T09:52:04.561Z,7.7
2023-05-04T09:54:03.114Z,7.3
2023-05-04T09:56:12.982Z,7.5
2023-05-04T09:58:02.676Z,6.5
2023-05-04T10:00:03.846Z,7.3
2023-05-04T10:02:14.553Z,9.2
2023-05-04T10:04:03.445Z,9.2
2023-05-04T10:06:05.448Z,7.9
2023-05-04T10:08:03.308Z,5.7
2023-05-04T10:10:03.184Z,6.6
2023-05-04T10:12:04.625Z,8.4
2023-05-04T10:14:02.351Z,6.0
2023-05-04T10:16:13.860Z,6.3
2023-05-04T10:18:14.088Z,7.4
2023-05-04T10:20:11.804Z,7.0
2023-05-04T10:22:13.156Z,7.0
2023-05-04T10:24:20.921Z,5.4
2023-05-04T10:26:21.877Z,7.4
2023-05-04T10:28:09.342Z,6.1
2023-05-04T10:30:04.406Z,9.3
2023-05-04T10:32:03.571Z,7.9
2023-05-04T10:34:02.580Z,6.0
2023-05-04T10:36:02.488Z,7.2
2023-05-04T10:38:03.936Z,6.2
2023-05-04T10:40:02.420Z,6.0
2023-05-04T10:42:04.051Z,7.0
2023-05-04T10:44:04.571Z,6.7
2023-05-04T10:46:02.531Z,6.8
2023-05-04T10:48:02.436Z,8.6
2023-05-04T10:50:04.989Z,6.3
2023-05-04T10:52:12.365Z,9.5
2023-05-04T10:54:02.682Z,6.9
2023-05-04T10:56:02.279Z,6.0
2023-05-04T10:58:02.326Z,8.3
2023-05-04T11:00:03.836Z,6.4
2023-05-04T11:02:04.577Z,8.3
2023-05-04T11:04:03.172Z,8.7
2023-05-04T11:06:02.619Z,9.2
2023-05-04T11:08:16.267Z,7.9
2023-05-04T11:10:03.157Z,7.2
2023-05-04T11:12:03.041Z,6.8
2023-05-04T11:14:03.054Z,6.4
2023-05-04T11:16:03.224Z,7.1
2023-05-04T11:18:02.344Z,9.0
2023-05-04T11:20:02.317Z,9.0
2023-05-04T11:22:03.284Z,6.8
2023-05-04T11:24:02.327Z,5.4
2023-05-04T11:26:08.302Z,7.7
2023-05-04T11:28:03.303Z,6.7
2023-05-04T11:30:04.710Z,8.0
2023-05-04T11:32:02.354Z,9.1
2023-05-04T11:34:02.290Z,7.3
2023-05-04T11:36:03.078Z,8.7
2023-05-04T11:38:02.962Z,7.1
2023-05-04T11:40:03.289Z,7.3
2023-05-04T11:42:05.863Z,6.3
2023-05-04T11:44:03.737Z,6.3
2023-05-04T11:46:02.972Z,6.8
2023-05-04T11:48:03.687Z,7.1
2023-05-04T11:50:02.827Z,8.5
2023-05-04T11:52:06.759Z,7.5
2023-05-04T11:54:02.713Z,6.0
2023-05-04T11:56:03.852Z,8.4
2023-05-04T11:58:05.074Z,7.2
2023-05-04T12:00:03.552Z,8.7
2023-05-04T12:02:02.591Z,6.8
2023-05-04T12:04:02.907Z,5.7
2023-05-04T12:06:03.476Z,7.2
2023-05-04T12:08:03.153Z,7.7
2023-05-04T12:10:02.495Z,7.1
2023-05-04T12:12:02.476Z,6.1
2023-05-04T12:14:04.815Z,6.4
2023-05-04T12:16:11.013Z,7.2
2023-05-04T12:18:03.703Z,7.3
2023-05-04T12:20:02.450Z,9.0
2023-05-04T12:22:04.547Z,7.9
2023-05-04T12:24:03.255Z,7.5
2023-05-04T12:26:03.021Z,7.2
2023-05-04T12:28:02.709Z,8.1
2023-05-04T12:30:02.350Z,6.0
2023-05-04T12:32:02.550Z,7.1
2023-05-04T12:34:02.506Z,7.8
2023-05-04T12:36:03.994Z,7.0
2023-05-04T12:38:02.582Z,5.3
2023-05-04T12:40:03.470Z,6.2
2023-05-04T12:42:03.566Z,8.5
2023-05-04T12:44:02.485Z,6.6
2023-05-04T12:46:03.199Z,6.7
2023-05-04T12:48:02.481Z,9.5
2023-05-04T12:50:04.603Z,7.3
2023-05-04T12:52:02.667Z,7.3
2023-05-04T12:54:02.265Z,7.6
2023-05-04T12:56:03.409Z,7.5
2023-05-04T12:58:03.247Z,7.1
2023-05-04T13:00:06.410Z,6.8
2023-05-04T13:02:02.730Z,6.6
2023-05-04T13:04:02.854Z,6.2
2023-05-04T13:06:03.787Z,5.9
2023-05-04T13:08:02.616Z,7.6
2023-05-04T13:10:03.080Z,7.1
2023-05-04T13:12:03.043Z,8.1
2023-05-04T13:14:02.629Z,5.9
2023-05-04T13:16:02.494Z,8.5
2023-05-04T13:18:02.887Z,5.8
2023-05-04T13:20:05.562Z,5.9
2023-05-04T13:22:02.473Z,8.0
2023-05-04T13:24:02.377Z,6.9
2023-05-04T13:26:02.700Z,8.8
2023-05-04T13:28:02.631Z,7.2
2023-05-04T13:30:03.207Z,7.6
2023-05-04T13:32:03.173Z,7.6
2023-05-04T13:34:02.588Z,8.0
2023-05-04T13:36:02.602Z,6.4
2023-05-04T13:38:03.223Z,8.1
2023-05-04T13:40:02.481Z,8.8
2023-05-04T13:42:03.359Z,7.2
2023-05-04T13:44:03.052Z,6.4
2023-05-04T13:46:03.295Z,7.2
2023-05-04T13:48:03.782Z,7.0
2023-05-04T13:50:02.599Z,6.5
2023-05-04T13:52:03.148Z,8.2
2023-05-04T13:54:03.112Z,7.7
2023-05-04T13:56:02.478Z,5.5
2023-05-04T13:58:03.457Z,7.5
2023-05-04T14:00:07.733Z,7.6
2023-05-04T14:02:02.633Z,6.4
2023-05-04T14:04:02.408Z,7.0
2023-05-04T14:06:02.810Z,5.9
2023-05-04T14:08:02.464Z,6.7
2023-05-04T14:10:03.520Z,7.2
2023-05-04T14:12:02.347Z,7.0
2023-05-04T14:14:02.508Z,6.9
2023-05-04T14:16:03.072Z,5.0
2023-05-04T14:18:03.710Z,7.0
2023-05-04T14:20:05.208Z,8.8
2023-05-04T14:22:02.433Z,6.9
2023-05-04T14:24:02.674Z,5.3
2023-05-04T14:26:02.488Z,7.5
2023-05-04T14:28:02.976Z,6.6
2023-05-04T14:30:03.248Z,7.2
2023-05-04T14:32:02.277Z,6.0
2023-05-04T14:34:03.220Z,6.2
2023-05-04T14:36:03.466Z,7.2
2023-05-04T14:38:02.662Z,7.1
2023-05-04T14:40:03.105Z,6.5
2023-05-04T14:42:02.763Z,7.4
2023-05-04T14:44:02.400Z,5.6
2023-05-04T14:46:03.463Z,6.8
2023-05-04T14:48:02.361Z,6.9
2023-05-04T14:50:02.662Z,6.6
2023-05-04T14:52:02.302Z,7.3
2023-05-04T14:54:03.258Z,6.1
2023-05-04T14:56:02.901Z,5.2
2023-05-04T14:58:02.462Z,7.2
2023-05-04T15:00:07.308Z,7.1
2023-05-04T15:02:04.889Z,7.3
2023-05-04T15:04:02.940Z,7.1
2023-05-04T15:06:03.301Z,6.8
2023-05-04T15:08:02.798Z,7.0
2023-05-04T15:10:02.920Z,7.6
2023-05-04T15:12:02.978Z,7.8
2023-05-04T15:14:02.835Z,6.1
2023-05-04T15:16:03.898Z,6.5
2023-05-04T15:18:02.928Z,7.0
2023-05-04T15:20:02.936Z,10.0
2023-05-04T15:22:02.310Z,6.4
2023-05-04T15:24:02.985Z,9.7
2023-05-04T15:26:03.737Z,7.6
2023-05-04T15:28:04.177Z,11.1
2023-05-04T15:30:03.980Z,6.8
2023-05-04T15:32:02.445Z,6.6
2023-05-04T15:34:02.581Z,7.2
2023-05-04T15:36:07.432Z,8.4
2023-05-04T15:38:03.365Z,8.1
2023-05-04T15:40:03.643Z,7.7
2023-05-04T15:42:03.862Z,7.7
2023-05-04T15:44:02.505Z,8.0
2023-05-04T15:46:02.342Z,8.1
2023-05-04T15:48:02.360Z,5.5
2023-05-04T15:50:03.499Z,7.8
2023-05-04T15:52:02.419Z,9.0
2023-05-04T15:54:04.079Z,8.1
2023-05-04T15:56:04.531Z,7.9
2023-05-04T15:58:02.973Z,8.6
2023-05-04T16:00:03.692Z,9.5
2023-05-04T16:02:05.336Z,6.8
2023-05-04T16:04:02.698Z,7.3
2023-05-04T16:06:04.938Z,6.9
2023-05-04T16:08:02.536Z,7.9
2023-05-04T16:10:02.614Z,6.0
2023-05-04T16:12:04.590Z,6.5
2023-05-04T16:14:03.622Z,8.9
2023-05-04T16:16:03.271Z,6.5
2023-05-04T16:18:02.433Z,6.5
2023-05-04T16:20:03.272Z,7.8
2023-05-04T16:22:02.624Z,5.3
2023-05-04T16:24:02.355Z,6.4
2023-05-04T16:26:02.634Z,6.6
2023-05-04T16:28:02.537Z,6.1
2023-05-04T16:30:02.553Z,9.1
2023-05-04T16:32:02.657Z,6.2
2023-05-04T16:34:02.390Z,7.3
2023-05-04T16:36:06.085Z,5.9
2023-05-04T16:38:03.266Z,8.1
2023-05-04T16:40:09.161Z,5.0
2023-05-04T16:42:02.959Z,5.3
2023-05-04T16:44:02.265Z,5.3
2023-05-04T16:46:02.433Z,6.3
2023-05-04T16:48:02.370Z,5.5
2023-05-04T16:50:03.662Z,7.2
2023-05-04T16:52:04.481Z,6.4
2023-05-04T16:54:02.587Z,6.3
2023-05-04T16:56:02.470Z,7.0
2023-05-04T16:58:02.347Z,9.3
2023-05-04T17:00:03.246Z,6.0
2023-05-04T17:02:02.677Z,6.7
2023-05-04T17:04:02.627Z,5.7
2023-05-04T17:06:03.225Z,7.7
2023-05-04T17:08:02.328Z,8.4
2023-05-04T17:10:02.311Z,7.2
2023-05-04T17:12:02.388Z,6.4
2023-05-04T17:14:03.305Z,7.2
2023-05-04T17:16:03.099Z,5.8
2023-05-04T17:18:02.559Z,6.5
2023-05-04T17:20:03.130Z,5.6
2023-05-04T17:22:02.498Z,6.6
2023-05-04T17:24:02.276Z,7.2
2023-05-04T17:26:02.535Z,8.1
2023-05-04T17:28:02.832Z,7.2
2023-05-04T17:30:03.141Z,10.0
2023-05-04T17:32:02.378Z,8.0
2023-05-04T17:34:02.427Z,7.7
2023-05-04T17:36:03.504Z,6.4
2023-05-04T17:38:02.733Z,8.0
2023-05-04T17:40:02.841Z,9.5
2023-05-04T17:42:02.396Z,6.2
2023-05-04T17:44:02.308Z,9.8
2023-05-04T17:46:03.588Z,7.4
2023-05-04T17:48:02.492Z,7.8
2023-05-04T17:50:03.519Z,8.5
2023-05-04T17:52:02.323Z,7.6
2023-05-04T17:54:02.919Z,8.0
2023-05-04T17:56:02.332Z,6.4
2023-05-04T17:58:03.045Z,7.6
2023-05-04T18:00:04.481Z,7.4
2023-05-04T18:02:02.739Z,7.4
2023-05-04T18:04:03.592Z,8.7
2023-05-04T18:06:02.347Z,8.0
2023-05-04T18:08:02.426Z,8.3
2023-05-04T18:12:02.755Z,8.5
2023-05-04T18:14:02.842Z,7.2
2023-05-04T18:16:03.767Z,8.1
2023-05-04T18:18:02.489Z,7.9
2023-05-04T18:20:03.838Z,8.1
2023-05-04T18:22:02.818Z,6.0
2023-05-04T18:24:03.184Z,6.3
2023-05-04T18:26:02.613Z,6.5
2023-05-04T18:28:02.573Z,9.2
2023-05-04T18:30:04.720Z,9.8
2023-05-04T18:32:07.214Z,9.5
2023-05-04T18:34:03.442Z,9.0
2023-05-04T18:36:02.881Z,9.1
2023-05-04T18:38:03.033Z,10.7
2023-05-04T18:40:04.104Z,13.0
2023-05-04T18:42:02.302Z,13.9
2023-05-04T18:44:03.019Z,11.5
2023-05-04T18:46:06.903Z,8.4
2023-05-04T18:48:02.299Z,9.8
2023-05-04T18:50:02.597Z,9.4
2023-05-04T18:52:02.998Z,9.5
2023-05-04T18:54:02.885Z,11.0
2023-05-04T18:56:04.675Z,10.0
2023-05-04T18:58:03.429Z,8.8
2023-05-04T19:00:05.844Z,8.3
2023-05-04T19:02:03.418Z,8.4
2023-05-04T19:04:03.218Z,10.1
2023-05-04T19:06:02.330Z,9.5
2023-05-04T19:08:02.849Z,9.1
2023-05-04T19:10:03.560Z,8.4
2023-05-04T19:12:03.487Z,9.7
2023-05-04T19:14:02.598Z,11.0
2023-05-04T19:16:02.411Z,9.2
2023-05-04T19:18:02.560Z,8.0
2023-05-04T19:20:03.078Z,8.5
2023-05-04T19:22:03.760Z,8.0
2023-05-04T19:24:02.327Z,8.6
2023-05-04T19:26:03.534Z,7.3
2023-05-04T19:28:07.290Z,9.3
2023-05-04T19:30:03.226Z,7.0
2023-05-04T19:32:11.961Z,7.4
2023-05-04T19:34:02.391Z,7.0
2023-05-04T19:36:02.334Z,10.3
2023-05-04T19:38:05.596Z,7.0
2023-05-04T19:40:04.458Z,8.0
2023-05-04T19:42:02.537Z,9.3
2023-05-04T19:44:02.889Z,8.4
2023-05-04T19:46:02.590Z,9.2
2023-05-04T19:48:04.310Z,8.5
2023-05-04T19:50:02.623Z,8.3
2023-05-04T19:52:03.291Z,7.9
2023-05-04T19:54:02.998Z,6.3
2023-05-04T19:56:02.490Z,9.7
2023-05-04T19:58:03.111Z,6.4
2023-05-04T20:00:04.017Z,8.8
2023-05-04T20:02:03.158Z,9.9
2023-05-04T20:04:02.320Z,7.7
2023-05-04T20:06:03.233Z,8.8
2023-05-04T20:08:04.930Z,8.7
2023-05-04T20:10:03.421Z,8.5
2023-05-04T20:12:02.643Z,8.9
2023-05-04T20:14:02.475Z,8.7
2023-05-04T20:16:02.343Z,8.7
2023-05-04T20:18:02.581Z,7.9
2023-05-04T20:20:03.208Z,8.2
2023-05-04T20:22:02.870Z,8.3
2023-05-04T20:24:03.250Z,7.7
2023-05-04T20:26:05.399Z,8.3
2023-05-04T20:28:02.486Z,8.0
2023-05-04T20:30:02.496Z,9.4
2023-05-04T20:32:04.450Z,7.8
2023-05-04T20:34:02.994Z,7.0
2023-05-04T20:36:03.140Z,7.7
2023-05-04T20:38:02.664Z,9.8
2023-05-04T20:40:03.533Z,7.5
2023-05-04T20:42:04.980Z,9.0
2023-05-04T20:44:03.757Z,7.2
2023-05-04T20:46:03.822Z,7.4
2023-05-04T20:48:03.274Z,6.5
2023-05-04T20:50:02.748Z,7.0
2023-05-04T20:52:03.750Z,5.2
2023-05-04T20:54:02.960Z,7.9
2023-05-04T20:56:02.937Z,6.4
2023-05-04T20:58:02.473Z,8.2
2023-05-04T21:00:03.070Z,7.1
2023-05-04T21:02:02.631Z,8.2
2023-05-04T21:04:02.709Z,8.5
2023-05-04T21:06:02.940Z,6.9
2023-05-04T21:08:02.881Z,7.9
2023-05-04T21:10:03.183Z,7.3
2023-05-04T21:12:02.509Z,6.0
2023-05-04T21:14:03.296Z,7.7
2023-05-04T21:16:02.656Z,7.7
2023-05-04T21:18:02.331Z,8.0
2023-05-04T21:20:02.602Z,8.0
2023-05-04T21:22:02.449Z,7.9
2023-05-04T21:24:02.566Z,6.9
2023-05-04T21:26:04.009Z,9.8
2023-05-04T21:28:02.746Z,7.6
2023-05-04T21:30:04.541Z,7.7
2023-05-04T21:32:03.200Z,7.9
2023-05-04T21:34:02.362Z,7.1
2023-05-04T21:36:10.588Z,5.8
2023-05-04T21:38:03.087Z,7.7
2023-05-04T21:40:02.382Z,7.2
2023-05-04T21:42:02.883Z,6.4
2023-05-04T21:44:02.449Z,6.7
2023-05-04T21:46:02.308Z,5.9
2023-05-04T21:48:04.307Z,6.9
2023-05-04T21:50:03.314Z,6.0
2023-05-04T21:52:02.318Z,5.0
2023-05-04T21:54:02.318Z,7.0
2023-05-04T21:56:07.359Z,4.9
2023-05-04T21:58:02.518Z,5.6
2023-05-04T22:00:11.260Z,6.2
2023-05-04T22:02:03.571Z,5.9
2023-05-04T22:04:05.181Z,6.0
2023-05-04T22:06:02.344Z,6.3
2023-05-04T22:08:02.859Z,4.3
2023-05-04T22:10:02.700Z,5.7
2023-05-04T22:12:03.314Z,4.9
2023-05-04T22:14:02.766Z,4.9
2023-05-04T22:16:02.971Z,5.2
2023-05-04T22:18:02.458Z,5.7
2023-05-04T22:20:02.805Z,7.0
2023-05-04T22:22:02.407Z,5.7
2023-05-04T22:24:02.724Z,4.8
2023-05-04T22:26:02.832Z,6.0
2023-05-04T22:28:02.760Z,5.1
2023-05-04T22:30:03.457Z,6.6
2023-05-04T22:32:02.388Z,5.1
2023-05-04T22:34:02.781Z,6.6
2023-05-04T22:36:02.687Z,6.6
2023-05-04T22:38:02.530Z,5.4
2023-05-04T22:40:03.867Z,5.5
2023-05-04T22:42:02.320Z,6.0
2023-05-04T22:44:02.432Z,6.8
2023-05-04T22:46:03.225Z,10.0
2023-05-04T22:48:03.065Z,8.8
2023-05-04T22:50:04.637Z,10.2
2023-05-04T22:52:02.962Z,7.4
2023-05-04T22:54:02.384Z,9.3
2023-05-04T22:56:02.376Z,7.3
2023-05-04T22:58:03.276Z,9.3
2023-05-04T23:00:03.525Z,8.6
2023-05-04T23:02:02.903Z,8.3
2023-05-04T23:04:03.015Z,6.7
2023-05-04T23:06:02.311Z,7.0
2023-05-04T23:08:03.155Z,8.3
2023-05-04T23:10:02.989Z,8.1
2023-05-04T23:12:02.549Z,8.4
2023-05-04T23:14:02.509Z,10.4
2023-05-04T23:16:03.618Z,10.2
2023-05-04T23:18:03.406Z,9.3
2023-05-04T23:20:02.532Z,7.7
2023-05-04T23:22:03.337Z,10.1
2023-05-04T23:24:03.095Z,8.2
2023-05-04T23:26:03.141Z,8.4
2023-05-04T23:28:03.089Z,8.7
2023-05-04T23:30:02.281Z,9.0
2023-05-04T23:32:03.038Z,9.0
2023-05-04T23:34:02.819Z,10.5
2023-05-04T23:36:03.346Z,8.8
2023-05-04T23:38:04.079Z,8.7
2023-05-04T23:40:02.592Z,8.8
2023-05-04T23:42:02.393Z,8.8
2023-05-04T23:44:03.318Z,9.7
2023-05-04T23:46:04.163Z,8.3
2023-05-04T23:48:02.586Z,10.8
2023-05-04T23:50:02.541Z,8.0
2023-05-04T23:52:02.343Z,6.9
2023-05-04T23:54:03.169Z,9.2
2023-05-04T23:56:04.518Z,8.4
2023-05-04T23:58:02.343Z,7.3
